createdAt,value
2023-04-21T00:00:11.433Z,100.00
2023-04-21T00:02:41.504Z,100.00
2023-04-21T00:05:13.583Z,100.00
2023-04-21T00:07:43.072Z,100.00
2023-04-21T00:10:12.865Z,100.00
2023-04-21T00:12:42.129Z,100.00
2023-04-21T00:15:12.821Z,100.00
2023-04-21T00:17:42.174Z,100.00
2023-04-21T00:20:12.536Z,100.00
2023-04-21T00:22:41.893Z,100.00
2023-04-21T00:25:11.498Z,100.00
2023-04-21T00:27:40.920Z,100.00
2023-04-21T00:30:11.113Z,100.00
2023-04-21T00:32:40.420Z,100.00
2023-04-21T00:35:10.575Z,100.00
2023-04-21T00:37:41.708Z,100.00
2023-04-21T00:40:13.677Z,100.00
2023-04-21T00:42:42.961Z,100.00
2023-04-21T00:45:12.620Z,100.00
2023-04-21T00:47:42.338Z,100.00
2023-04-21T00:50:13.589Z,100.00
2023-04-21T00:52:44.450Z,100.00
2023-04-21T00:55:14.067Z,100.00
2023-04-21T00:57:45.017Z,100.00
2023-04-21T01:00:15.150Z,100.00
2023-04-21T01:02:45.821Z,100.00
2023-04-21T01:05:18.545Z,100.00
2023-04-21T01:07:48.210Z,100.00
2023-04-21T01:10:18.338Z,100.00
2023-04-21T01:12:49.066Z,100.00
2023-04-21T01:15:18.954Z,100.00
2023-04-21T01:17:49.639Z,100.00
2023-04-21T01:20:19.361Z,100.00
2023-04-21T01:22:49.933Z,100.00
2023-04-21T01:25:21.683Z,100.00
2023-04-21T01:27:51.817Z,100.00
2023-04-21T01:30:23.029Z,100.00
2023-04-21T01:32:53.078Z,100.00
2023-04-21T01:35:22.663Z,100.00
2023-04-21T01:37:52.084Z,100.00
2023-04-21T01:40:21.473Z,100.00
2023-04-21T01:42:50.732Z,100.00
2023-04-21T01:45:20.387Z,100.00
2023-04-21T01:47:49.771Z,100.00
2023-04-21T01:50:19.081Z,100.00
2023-04-21T01:52:48.570Z,100.00
2023-04-21T01:55:17.983Z,100.00
2023-04-21T01:57:47.352Z,100.00
2023-04-21T02:00:17.646Z,100.00
2023-04-21T02:02:47.059Z,100.00
2023-04-21T02:05:16.677Z,100.00
2023-04-21T02:07:45.953Z,100.00
2023-04-21T02:10:16.269Z,100.00
2023-04-21T02:12:46.244Z,100.00
2023-04-21T02:15:15.523Z,100.00
2023-04-21T02:17:45.291Z,100.00
2023-04-21T02:20:14.822Z,100.00
2023-04-21T02:22:44.136Z,100.00
2023-04-21T02:25:13.444Z,100.00
2023-04-21T02:27:42.834Z,100.00
2023-04-21T02:30:12.248Z,100.00
2023-04-21T02:32:43.701Z,100.00
2023-04-21T02:35:13.231Z,100.00
2023-04-21T02:37:42.932Z,100.00
2023-04-21T02:40:12.964Z,100.00
2023-04-21T02:42:42.295Z,100.00
2023-04-21T02:45:12.428Z,100.00
2023-04-21T02:47:41.899Z,100.00
2023-04-21T02:50:11.725Z,100.00
2023-04-21T02:52:41.381Z,100.00
2023-04-21T02:55:12.408Z,100.00
2023-04-21T02:57:43.481Z,100.00
2023-04-21T03:00:14.035Z,100.00
2023-04-21T03:02:43.792Z,100.00
2023-04-21T03:05:13.360Z,100.00
2023-04-21T03:07:43.151Z,100.00
2023-04-21T03:10:13.211Z,100.00
2023-04-21T03:12:42.870Z,100.00
2023-04-21T03:15:14.302Z,100.00
2023-04-21T03:17:44.524Z,100.00
2023-04-21T03:20:14.392Z,100.00
2023-04-21T03:22:43.697Z,100.00
2023-04-21T03:25:13.242Z,100.00
2023-04-21T03:27:42.884Z,100.00
2023-04-21T03:30:13.444Z,100.00
2023-04-21T03:32:43.014Z,100.00
2023-04-21T03:35:12.574Z,100.00
2023-04-21T03:37:41.841Z,100.00
2023-04-21T03:40:12.025Z,100.00
2023-04-21T03:42:41.680Z,100.00
2023-04-21T03:45:11.484Z,100.00
2023-04-21T03:47:41.094Z,100.00
2023-04-21T03:50:10.991Z,100.00
2023-04-21T03:52:40.483Z,100.00
2023-04-21T03:55:11.663Z,100.00
2023-04-21T03:57:42.103Z,100.00
2023-04-21T04:00:12.794Z,100.00
2023-04-21T04:02:41.906Z,100.00
2023-04-21T04:05:11.949Z,100.00
2023-04-21T04:07:41.340Z,100.00
2023-04-21T04:10:11.648Z,100.00
2023-04-21T04:12:41.008Z,100.00
2023-04-21T04:15:10.680Z,100.00
2023-04-21T04:17:40.233Z,100.00
2023-04-21T04:20:10.138Z,100.00
2023-04-21T04:22:39.750Z,100.00
2023-04-21T04:25:09.629Z,100.00
2023-04-21T04:27:39.083Z,100.00
2023-04-21T04:30:09.452Z,100.00
2023-04-21T04:32:39.691Z,100.00
2023-04-21T04:35:10.529Z,100.00
2023-04-21T04:37:41.376Z,100.00
2023-04-21T04:40:12.661Z,100.00
2023-04-21T04:42:42.523Z,100.00
2023-04-21T04:45:13.626Z,100.00
2023-04-21T04:47:43.311Z,100.00
2023-04-21T04:50:12.600Z,100.00
2023-04-21T04:52:41.900Z,100.00
2023-04-21T04:55:11.161Z,100.00
2023-04-21T04:57:40.611Z,100.00
2023-04-21T05:00:11.690Z,100.00
2023-04-21T05:02:41.711Z,100.00
2023-04-21T05:05:11.655Z,100.00
2023-04-21T05:07:41.119Z,100.00
2023-04-21T05:10:10.505Z,100.00
2023-04-21T05:12:40.522Z,100.00
2023-04-21T05:15:11.211Z,100.00
2023-04-21T05:17:40.719Z,100.00
2023-04-21T05:20:10.648Z,100.00
2023-04-21T05:22:40.764Z,100.00
2023-04-21T05:25:13.819Z,100.00
2023-04-21T05:27:43.946Z,100.00
2023-04-21T05:30:13.428Z,100.00
2023-04-21T05:32:42.953Z,100.00
2023-04-21T05:35:12.306Z,100.00
2023-04-21T05:37:41.704Z,100.00
2023-04-21T05:40:11.606Z,100.00
2023-04-21T05:42:41.292Z,100.00
2023-04-21T05:45:11.416Z,100.00
2023-04-21T05:47:40.797Z,100.00
2023-04-21T05:50:11.019Z,100.00
2023-04-21T05:52:40.719Z,100.00
2023-04-21T05:55:10.017Z,100.00
2023-04-21T05:57:39.301Z,100.00
2023-04-21T06:00:09.775Z,100.00
2023-04-21T06:02:39.334Z,100.00
2023-04-21T06:05:09.074Z,100.00
2023-04-21T06:07:39.090Z,100.00
2023-04-21T06:10:09.442Z,100.00
2023-04-21T06:12:39.032Z,100.00
2023-04-21T06:15:08.927Z,100.00
2023-04-21T06:17:38.685Z,100.00
2023-04-21T06:20:09.796Z,100.00
2023-04-21T06:22:39.124Z,100.00
2023-04-21T06:25:09.051Z,100.00
2023-04-21T06:27:38.920Z,100.00
2023-04-21T06:30:10.127Z,100.00
2023-04-21T06:32:39.567Z,100.00
2023-04-21T06:35:09.604Z,100.00
2023-04-21T06:37:39.521Z,100.00
2023-04-21T06:40:09.619Z,100.00
2023-04-21T06:42:39.170Z,100.00
2023-04-21T06:45:10.165Z,100.00
2023-04-21T06:47:39.519Z,100.00
2023-04-21T06:50:09.590Z,100.00
2023-04-21T06:52:39.131Z,100.00
2023-04-21T06:55:08.897Z,100.00
2023-04-21T06:57:38.286Z,100.00
2023-04-21T07:00:08.616Z,100.00
2023-04-21T07:02:38.018Z,100.00
2023-04-21T07:05:07.765Z,100.00
2023-04-21T07:07:37.254Z,100.00
2023-04-21T07:10:07.365Z,100.00
2023-04-21T07:12:37.071Z,99.49
2023-04-21T07:15:07.576Z,98.88
2023-04-21T07:17:37.159Z,99.15
2023-04-21T07:20:07.885Z,98.52
2023-04-21T07:22:37.342Z,99.48
2023-04-21T07:25:07.349Z,98.37
2023-04-21T07:27:37.287Z,97.19
2023-04-21T07:30:07.538Z,98.18
2023-04-21T07:32:38.964Z,97.49
2023-04-21T07:35:09.397Z,96.65
2023-04-21T07:37:40.580Z,95.80
2023-04-21T07:40:10.953Z,94.76
2023-04-21T07:42:41.190Z,95.33
2023-04-21T07:45:11.704Z,95.94
2023-04-21T07:47:41.580Z,94.86
2023-04-21T07:50:11.489Z,92.57
2023-04-21T07:52:40.929Z,92.17
2023-04-21T07:55:10.585Z,91.53
2023-04-21T07:57:40.217Z,90.51
2023-04-21T08:00:10.307Z,90.18
2023-04-21T08:02:42.783Z,88.99
2023-04-21T08:05:12.509Z,85.99
2023-04-21T08:07:42.582Z,87.46
2023-04-21T08:10:12.150Z,86.85
2023-04-21T08:12:41.782Z,88.50
2023-04-21T08:15:12.717Z,86.44
2023-04-21T08:17:42.364Z,86.20
2023-04-21T08:20:12.333Z,85.20
2023-04-21T08:22:41.957Z,84.48
2023-04-21T08:25:11.635Z,85.07
2023-04-21T08:27:42.248Z,84.94
2023-04-21T08:30:12.281Z,84.02
2023-04-21T08:32:41.737Z,82.26
2023-04-21T08:35:11.537Z,81.93
2023-04-21T08:37:40.984Z,80.30
2023-04-21T08:40:12.113Z,81.20
2023-04-21T08:42:41.916Z,81.21
2023-04-21T08:45:12.026Z,81.43
2023-04-21T08:47:42.620Z,80.42
2023-04-21T08:50:15.869Z,78.55
2023-04-21T08:52:45.229Z,81.08
2023-04-21T08:55:14.601Z,80.32
2023-04-21T08:57:44.036Z,79.94
2023-04-21T09:00:14.179Z,80.23
2023-04-21T09:03:02.486Z,78.64
2023-04-21T09:05:33.978Z,76.18
2023-04-21T09:08:14.180Z,76.48
2023-04-21T09:10:51.533Z,77.65
2023-04-21T09:13:23.488Z,76.17
2023-04-21T09:15:53.439Z,78.80
2023-04-21T09:18:25.565Z,78.13
2023-04-21T09:21:10.061Z,75.14
2023-04-21T09:23:48.220Z,74.50
2023-04-21T09:26:18.982Z,73.18
2023-04-21T09:28:49.840Z,73.35
2023-04-21T09:31:20.718Z,71.33
2023-04-21T09:33:58.729Z,68.57
2023-04-21T09:36:28.322Z,69.25
2023-04-21T09:39:24.242Z,62.18
2023-04-21T09:41:32.743Z,61.38
2023-04-21T09:44:03.688Z,58.00
2023-04-21T09:46:36.285Z,56.77
2023-04-21T09:49:06.966Z,54.01
2023-04-21T09:52:05.876Z,52.08
2023-04-21T09:54:25.948Z,52.43
2023-04-21T09:56:42.641Z,54.98
2023-04-21T09:59:14.640Z,56.50
2023-04-21T10:01:45.067Z,58.04
2023-04-21T10:04:15.171Z,56.41
2023-04-21T10:06:44.823Z,55.08
2023-04-21T10:09:15.483Z,56.97
2023-04-21T10:11:45.665Z,55.75
2023-04-21T10:14:14.990Z,54.89
2023-04-21T10:16:44.769Z,57.91
2023-04-21T10:19:28.146Z,60.10
2023-04-21T10:21:58.255Z,61.65
2023-04-21T10:24:31.832Z,60.27
2023-04-21T10:27:02.366Z,53.11
2023-04-21T10:29:47.780Z,53.11
2023-04-21T10:32:08.562Z,55.70
2023-04-21T10:34:39.532Z,53.70
2023-04-21T10:37:12.501Z,55.34
2023-04-21T10:39:53.336Z,51.82
2023-04-21T10:42:28.302Z,50.80
2023-04-21T10:45:02.339Z,52.98
2023-04-21T10:47:46.267Z,54.15
2023-04-21T10:50:21.347Z,57.98
2023-04-21T10:53:02.594Z,58.58
2023-04-21T10:55:32.071Z,56.89
2023-04-21T10:58:03.644Z,56.61
2023-04-21T11:00:33.388Z,55.99
2023-04-21T11:03:04.663Z,56.54
2023-04-21T11:05:40.470Z,59.53
2023-04-21T11:08:15.347Z,54.57
2023-04-21T11:10:53.445Z,54.57
2023-04-21T11:13:25.862Z,54.74
2023-04-21T11:16:03.386Z,50.95
2023-04-21T11:18:42.021Z,51.62
2023-04-21T11:21:16.625Z,53.64
2023-04-21T11:23:53.738Z,55.87
2023-04-21T11:26:39.051Z,54.24
2023-04-21T11:29:09.746Z,56.19
2023-04-21T11:31:41.393Z,53.44
2023-04-21T11:34:11.880Z,56.63
2023-04-21T11:36:43.484Z,55.28
2023-04-21T11:39:15.845Z,52.67
2023-04-21T11:41:47.632Z,50.60
2023-04-21T11:44:34.699Z,51.12
2023-04-21T11:47:17.581Z,47.04
2023-04-21T11:49:49.235Z,45.96
2023-04-21T11:52:26.907Z,49.37
2023-04-21T11:55:08.289Z,45.31
2023-04-21T11:57:38.977Z,47.01
2023-04-21T12:00:15.395Z,50.43
2023-04-21T12:06:02.530Z,52.45
2023-04-21T12:08:35.882Z,53.29
2023-04-21T12:11:05.232Z,48.74
2023-04-21T12:13:36.092Z,51.43
2023-04-21T12:16:06.846Z,49.04
2023-04-21T12:18:37.591Z,52.87
2023-04-21T12:21:07.024Z,52.87
2023-04-21T12:23:36.540Z,53.13
2023-04-21T12:26:06.210Z,51.75
2023-04-21T12:28:36.459Z,48.33
2023-04-21T12:31:06.604Z,47.66
2023-04-21T12:33:36.309Z,46.87
2023-04-21T12:36:05.778Z,52.09
2023-04-21T12:38:35.295Z,49.58
2023-04-21T12:41:04.576Z,50.93
2023-04-21T12:43:34.136Z,53.36
2023-04-21T12:46:03.825Z,51.50
2023-04-21T12:48:34.794Z,51.58
2023-04-21T12:51:04.553Z,49.31
2023-04-21T12:53:33.890Z,47.18
2023-04-21T12:56:05.331Z,50.32
2023-04-21T12:58:34.750Z,52.59
2023-04-21T13:01:04.247Z,55.19
2023-04-21T13:03:34.108Z,53.16
2023-04-21T13:06:04.466Z,52.83
2023-04-21T13:08:33.830Z,52.83
2023-04-21T13:11:03.250Z,53.25
2023-04-21T13:13:32.591Z,55.04
2023-04-21T13:16:02.114Z,53.90
2023-04-21T13:18:31.578Z,53.27
2023-04-21T13:21:01.325Z,47.87
2023-04-21T13:23:30.815Z,49.43
2023-04-21T13:29:11.351Z,48.51
2023-04-21T13:31:41.133Z,47.95
2023-04-21T13:34:12.334Z,46.65
2023-04-21T13:36:42.183Z,51.90
2023-04-21T13:39:12.990Z,51.90
2023-04-21T13:41:42.365Z,52.21
2023-04-21T13:44:11.665Z,50.93
2023-04-21T13:46:41.139Z,49.90
2023-04-21T13:49:10.771Z,51.93
2023-04-21T13:51:40.605Z,54.11
2023-04-21T13:54:10.828Z,55.63
2023-04-21T13:56:40.663Z,54.20
2023-04-21T13:59:11.228Z,54.63
2023-04-21T14:01:41.861Z,55.06
2023-04-21T14:04:11.515Z,52.29
2023-04-21T14:06:41.532Z,50.00
2023-04-21T14:09:11.976Z,53.15
2023-04-21T14:11:48.231Z,56.04
2023-04-21T14:14:31.253Z,55.91
2023-04-21T14:16:50.323Z,56.32
2023-04-21T14:19:20.132Z,54.80
2023-04-21T14:21:49.520Z,54.05
2023-04-21T14:24:19.240Z,53.42
2023-04-21T14:26:48.804Z,52.66
2023-04-21T14:29:18.167Z,54.62
2023-04-21T14:31:47.525Z,53.21
2023-04-21T14:34:17.085Z,53.80
2023-04-21T14:36:48.455Z,51.24
2023-04-21T14:39:18.853Z,52.58
2023-04-21T14:41:48.212Z,52.58
2023-04-21T14:44:19.012Z,54.94
2023-04-21T14:47:00.946Z,54.57
2023-04-21T14:49:20.643Z,55.63
2023-04-21T14:51:52.002Z,56.81
2023-04-21T14:54:21.709Z,56.70
2023-04-21T14:56:51.395Z,58.13
2023-04-21T14:59:20.966Z,57.49
2023-04-21T15:01:51.245Z,57.20
2023-04-21T15:04:20.732Z,56.14
2023-04-21T15:06:52.248Z,57.76
2023-04-21T15:09:21.875Z,56.88
2023-04-21T15:11:51.643Z,55.63
2023-04-21T15:14:21.412Z,55.35
2023-04-21T15:16:50.766Z,57.81
2023-04-21T15:19:20.439Z,57.94
2023-04-21T15:21:49.882Z,58.87
2023-04-21T15:24:19.765Z,61.36
2023-04-21T15:26:49.110Z,61.09
2023-04-21T15:29:18.565Z,60.72
2023-04-21T15:31:47.860Z,58.09
2023-04-21T15:34:17.144Z,59.06
2023-04-21T15:36:48.398Z,59.13
2023-04-21T15:39:17.703Z,60.03
2023-04-21T15:41:48.225Z,60.15
2023-04-21T15:44:17.647Z,59.31
2023-04-21T15:46:47.705Z,59.75
2023-04-21T15:49:17.585Z,60.93
2023-04-21T15:51:46.942Z,62.23
2023-04-21T15:54:17.562Z,62.22
2023-04-21T15:56:46.811Z,62.58
2023-04-21T15:59:16.723Z,63.17
2023-04-21T16:01:46.327Z,62.70
2023-04-21T16:04:17.202Z,62.13
2023-04-21T16:06:46.810Z,62.30
2023-04-21T16:09:17.399Z,63.23
2023-04-21T16:11:46.704Z,63.71
2023-04-21T16:14:16.793Z,61.78
2023-04-21T16:16:46.923Z,61.21
2023-04-21T16:19:16.801Z,59.90
2023-04-21T16:21:46.352Z,57.32
2023-04-21T16:24:16.196Z,55.24
2023-04-21T16:26:45.785Z,53.55
2023-04-21T16:29:15.726Z,53.72
2023-04-21T16:31:45.000Z,52.74
2023-04-21T16:34:16.080Z,54.47
2023-04-21T16:36:45.431Z,55.76
2023-04-21T16:39:14.932Z,56.03
2023-04-21T16:41:44.170Z,54.70
2023-04-21T16:44:13.661Z,54.73
2023-04-21T16:46:42.930Z,56.06
2023-04-21T16:49:12.838Z,58.30
2023-04-21T16:51:44.045Z,57.39
2023-04-21T16:54:14.051Z,57.15
2023-04-21T16:56:43.745Z,57.31
2023-04-21T16:59:13.075Z,58.75
2023-04-21T17:01:42.547Z,60.21
2023-04-21T17:04:14.094Z,61.08
2023-04-21T17:06:43.863Z,62.24
2023-04-21T17:09:13.217Z,63.84
2023-04-21T17:11:42.674Z,61.75
2023-04-21T17:14:12.796Z,62.75
2023-04-21T17:16:42.532Z,63.27
2023-04-21T17:19:11.897Z,60.86
2023-04-21T17:21:41.344Z,60.41
2023-04-21T17:24:11.064Z,60.76
2023-04-21T17:26:40.808Z,61.80
2023-04-21T17:29:11.202Z,61.73
2023-04-21T17:31:40.466Z,60.81
2023-04-21T17:34:10.051Z,59.41
2023-04-21T17:36:40.777Z,61.20
2023-04-21T17:39:10.425Z,69.21
2023-04-21T17:41:40.782Z,82.00
2023-04-21T17:44:10.658Z,92.37
2023-04-21T21:08:09.039Z,100.00
2023-04-21T21:10:38.633Z,100.00
2023-04-21T21:13:08.277Z,100.00
2023-04-21T21:15:37.707Z,100.00
2023-04-21T21:18:07.547Z,100.00
2023-04-21T21:20:36.906Z,100.00
2023-04-21T21:23:07.261Z,100.00
2023-04-21T21:25:36.969Z,100.00
2023-04-21T21:28:06.904Z,100.00
2023-04-21T21:30:36.463Z,100.00
2023-04-21T21:33:05.777Z,100.00
2023-04-21T21:35:35.070Z,100.00
2023-04-21T21:38:04.360Z,100.00
2023-04-21T21:40:33.657Z,100.00
2023-04-21T21:43:03.154Z,100.00
2023-04-21T21:45:32.770Z,100.00
2023-04-21T21:48:02.167Z,100.00
2023-04-21T21:50:31.853Z,100.00
2023-04-21T21:53:01.166Z,100.00
2023-04-21T21:55:30.632Z,100.00
2023-04-21T21:58:01.836Z,100.00
2023-04-21T22:00:34.054Z,100.00
2023-04-21T22:03:04.813Z,100.00
2023-04-21T22:05:34.776Z,100.00
2023-04-21T22:08:04.099Z,100.00
2023-04-21T22:10:34.416Z,100.00
2023-04-21T22:13:04.238Z,100.00
2023-04-21T22:15:35.988Z,100.00
2023-04-21T22:18:05.149Z,100.00
2023-04-21T22:20:34.544Z,100.00
2023-04-21T22:23:05.080Z,100.00
2023-04-21T22:25:34.380Z,100.00
2023-04-21T22:28:03.893Z,100.00
2023-04-21T22:30:33.500Z,100.00
2023-04-21T22:33:03.507Z,100.00
2023-04-21T22:35:33.152Z,100.00
2023-04-21T22:38:02.744Z,100.00
2023-04-21T22:40:32.253Z,100.00
2023-04-21T22:43:02.756Z,100.00
2023-04-21T22:45:32.429Z,100.00
2023-04-21T22:48:01.770Z,100.00
2023-04-21T22:50:31.117Z,100.00
2023-04-21T22:53:00.412Z,100.00
2023-04-21T22:55:29.895Z,100.00
2023-04-21T22:57:59.154Z,100.00
2023-04-21T23:00:28.545Z,100.00
2023-04-21T23:02:58.368Z,100.00
2023-04-21T23:05:27.994Z,100.00
2023-04-21T23:07:57.764Z,100.00
2023-04-21T23:10:28.770Z,100.00
2023-04-21T23:12:58.418Z,100.00
2023-04-21T23:15:27.829Z,100.00
2023-04-21T23:17:57.568Z,100.00
2023-04-21T23:20:27.447Z,100.00
2023-04-21T23:22:56.727Z,100.00
2023-04-21T23:25:26.102Z,100.00
2023-04-21T23:27:55.723Z,100.00
2023-04-21T23:30:25.079Z,100.00
2023-04-21T23:32:55.127Z,100.00
2023-04-21T23:35:24.603Z,100.00
2023-04-21T23:37:54.133Z,100.00
2023-04-21T23:40:23.674Z,100.00
2023-04-21T23:42:52.961Z,100.00
2023-04-21T23:45:22.690Z,100.00
2023-04-21T23:47:52.213Z,100.00
2023-04-21T23:50:21.530Z,100.00
2023-04-21T23:52:51.128Z,100.00
2023-04-21T23:55:20.561Z,100.00
2023-04-21T23:57:50.312Z,100.00
